sensor_id;sensor_type;location;lat;lon;timestamp;P1;durP1;ratioP1;P2;durP2;ratioP2
13218;SDS011;6674;49.152;11.918;2022-12-26T00:01:45;7.53;;;6.40;;
13218;SDS011;6674;49.152;11.918;2022-12-26T00:04:13;6.60;;;6.00;;
13218;SDS011;6674;49.152;11.918;2022-12-26T00:06:41;6.73;;;5.93;;
13218;SDS011;6674;49.152;11.918;2022-12-26T00:09:08;5.90;;;5.40;;
13218;SDS011;6674;49.152;11.918;2022-12-26T00:11:35;5.53;;;5.03;;
13218;SDS011;6674;49.152;11.918;2022-12-26T00:14:04;4.97;;;4.57;;
13218;SDS011;6674;49.152;11.918;2022-12-26T00:16:33;4.97;;;4.40;;
13218;SDS011;6674;49.152;11.918;2022-12-26T00:19:00;4.97;;;4.57;;
13218;SDS011;6674;49.152;11.918;2022-12-26T00:21:27;4.73;;;4.33;;
13218;SDS011;6674;49.152;11.918;2022-12-26T00:23:56;4.77;;;4.33;;
13218;SDS011;6674;49.152;11.918;2022-12-26T00:26:24;5.60;;;5.10;;
13218;SDS011;6674;49.152;11.918;2022-12-26T00:28:52;4.90;;;4.47;;
13218;SDS011;6674;49.152;11.918;2022-12-26T00:31:20;4.43;;;4.03;;
13218;SDS011;6674;49.152;11.918;2022-12-26T00:33:49;4.30;;;3.90;;
13218;SDS011;6674;49.152;11.918;2022-12-26T00:36:17;4.40;;;4.00;;
13218;SDS011;6674;49.152;11.918;2022-12-26T00:38:45;6.63;;;5.00;;
13218;SDS011;6674;49.152;11.918;2022-12-26T00:41:14;4.80;;;4.40;;
13218;SDS011;6674;49.152;11.918;2022-12-26T00:43:42;5.30;;;4.80;;
13218;SDS011;6674;49.152;11.918;2022-12-26T00:46:09;6.53;;;5.93;;
13218;SDS011;6674;49.152;11.918;2022-12-26T00:48:35;5.60;;;4.80;;
13218;SDS011;6674;49.152;11.918;2022-12-26T00:51:03;5.17;;;4.40;;
13218;SDS011;6674;49.152;11.918;2022-12-26T00:53:30;4.73;;;4.33;;
13218;SDS011;6674;49.152;11.918;2022-12-26T00:55:57;4.90;;;4.50;;
13218;SDS011;6674;49.152;11.918;2022-12-26T00:58:25;5.37;;;4.40;;
13218;SDS011;6674;49.152;11.918;2022-12-26T01:00:52;5.50;;;4.97;;
13218;SDS011;6674;49.152;11.918;2022-12-26T01:03:19;5.47;;;4.83;;
13218;SDS011;6674;49.152;11.918;2022-12-26T01:05:46;6.53;;;5.33;;
13218;SDS011;6674;49.152;11.918;2022-12-26T01:08:15;5.77;;;5.17;;
13218;SDS011;6674;49.152;11.918;2022-12-26T01:10:42;5.70;;;5.20;;
13218;SDS011;6674;49.152;11.918;2022-12-26T01:13:10;5.40;;;4.90;;
13218;SDS011;6674;49.152;11.918;2022-12-26T01:15:38;5.33;;;4.23;;
13218;SDS011;6674;49.152;11.918;2022-12-26T01:18:04;4.83;;;4.43;;
13218;SDS011;6674;49.152;11.918;2022-12-26T01:20:31;4.40;;;4.00;;
13218;SDS011;6674;49.152;11.918;2022-12-26T01:22:58;4.87;;;4.47;;
13218;SDS011;6674;49.152;11.918;2022-12-26T01:25:24;4.80;;;4.40;;
13218;SDS011;6674;49.152;11.918;2022-12-26T01:27:51;4.90;;;4.10;;
13218;SDS011;6674;49.152;11.918;2022-12-26T01:30:17;5.23;;;4.63;;
13218;SDS011;6674;49.152;11.918;2022-12-26T01:32:45;5.50;;;4.00;;
13218;SDS011;6674;49.152;11.918;2022-12-26T01:35:12;5.10;;;4.60;;
13218;SDS011;6674;49.152;11.918;2022-12-26T01:37:39;5.63;;;5.13;;
13218;SDS011;6674;49.152;11.918;2022-12-26T01:40:06;6.63;;;5.43;;
13218;SDS011;6674;49.152;11.918;2022-12-26T01:42:35;5.13;;;4.63;;
13218;SDS011;6674;49.152;11.918;2022-12-26T01:45:06;4.77;;;4.27;;
13218;SDS011;6674;49.152;11.918;2022-12-26T01:47:54;6.07;;;5.13;;
13218;SDS011;6674;49.152;11.918;2022-12-26T01:50:29;5.07;;;4.67;;
13218;SDS011;6674;49.152;11.918;2022-12-26T01:53:04;4.70;;;4.30;;
13218;SDS011;6674;49.152;11.918;2022-12-26T01:55:36;5.63;;;4.47;;
13218;SDS011;6674;49.152;11.918;2022-12-26T01:58:06;4.23;;;3.83;;
13218;SDS011;6674;49.152;11.918;2022-12-26T02:00:38;4.80;;;4.30;;
13218;SDS011;6674;49.152;11.918;2022-12-26T02:03:07;5.00;;;4.50;;
13218;SDS011;6674;49.152;11.918;2022-12-26T02:05:53;5.30;;;4.80;;
13218;SDS011;6674;49.152;11.918;2022-12-26T02:08:23;5.30;;;4.80;;
13218;SDS011;6674;49.152;11.918;2022-12-26T02:10:55;4.80;;;4.40;;
13218;SDS011;6674;49.152;11.918;2022-12-26T02:13:26;4.47;;;4.07;;
13218;SDS011;6674;49.152;11.918;2022-12-26T02:15:54;4.30;;;3.90;;
13218;SDS011;6674;49.152;11.918;2022-12-26T02:18:22;4.93;;;4.30;;
13218;SDS011;6674;49.152;11.918;2022-12-26T02:20:51;6.13;;;5.03;;
13218;SDS011;6674;49.152;11.918;2022-12-26T02:29:47;4.03;;;3.73;;
13218;SDS011;6674;49.152;11.918;2022-12-26T02:32:36;4.27;;;3.87;;
13218;SDS011;6674;49.152;11.918;2022-12-26T02:35:23;5.13;;;4.70;;
13218;SDS011;6674;49.152;11.918;2022-12-26T02:38:02;5.60;;;5.00;;
13218;SDS011;6674;49.152;11.918;2022-12-26T02:40:43;5.40;;;4.90;;
13218;SDS011;6674;49.152;11.918;2022-12-26T02:43:20;4.90;;;4.40;;
13218;SDS011;6674;49.152;11.918;2022-12-26T02:45:54;5.57;;;5.07;;
13218;SDS011;6674;49.152;11.918;2022-12-26T02:48:49;5.90;;;5.40;;
13218;SDS011;6674;49.152;11.918;2022-12-26T02:51:34;5.90;;;5.33;;
13218;SDS011;6674;49.152;11.918;2022-12-26T02:54:26;5.70;;;5.20;;
13218;SDS011;6674;49.152;11.918;2022-12-26T02:57:17;7.23;;;6.07;;
13218;SDS011;6674;49.152;11.918;2022-12-26T03:00:04;6.13;;;5.57;;
13218;SDS011;6674;49.152;11.918;2022-12-26T03:02:51;6.70;;;6.00;;
13218;SDS011;6674;49.152;11.918;2022-12-26T03:05:42;5.70;;;5.20;;
13218;SDS011;6674;49.152;11.918;2022-12-26T03:08:32;5.33;;;4.87;;
13218;SDS011;6674;49.152;11.918;2022-12-26T03:11:19;6.30;;;5.20;;
13218;SDS011;6674;49.152;11.918;2022-12-26T03:14:08;6.60;;;5.20;;
13218;SDS011;6674;49.152;11.918;2022-12-26T03:16:40;5.80;;;5.23;;
13218;SDS011;6674;49.152;11.918;2022-12-26T03:19:29;6.00;;;5.10;;
13218;SDS011;6674;49.152;11.918;2022-12-26T03:21:59;5.30;;;4.77;;
13218;SDS011;6674;49.152;11.918;2022-12-26T03:24:48;5.50;;;4.90;;
13218;SDS011;6674;49.152;11.918;2022-12-26T03:27:30;4.73;;;4.33;;
13218;SDS011;6674;49.152;11.918;2022-12-26T03:29:57;4.13;;;3.73;;
13218;SDS011;6674;49.152;11.918;2022-12-26T03:32:42;4.50;;;3.97;;
13218;SDS011;6674;49.152;11.918;2022-12-26T03:35:10;4.40;;;4.00;;
13218;SDS011;6674;49.152;11.918;2022-12-26T03:37:41;4.00;;;3.70;;
13218;SDS011;6674;49.152;11.918;2022-12-26T03:40:20;3.90;;;3.60;;
13218;SDS011;6674;49.152;11.918;2022-12-26T03:43:12;4.83;;;4.33;;
13218;SDS011;6674;49.152;11.918;2022-12-26T03:46:09;3.70;;;3.40;;
13218;SDS011;6674;49.152;11.918;2022-12-26T03:49:00;3.87;;;3.47;;
13218;SDS011;6674;49.152;11.918;2022-12-26T03:51:51;4.27;;;3.60;;
13218;SDS011;6674;49.152;11.918;2022-12-26T03:54:44;4.00;;;3.70;;
13218;SDS011;6674;49.152;11.918;2022-12-26T03:57:36;4.37;;;3.97;;
13218;SDS011;6674;49.152;11.918;2022-12-26T04:00:24;5.33;;;4.90;;
13218;SDS011;6674;49.152;11.918;2022-12-26T04:03:12;6.03;;;5.23;;
13218;SDS011;6674;49.152;11.918;2022-12-26T04:05:57;6.43;;;5.77;;
13218;SDS011;6674;49.152;11.918;2022-12-26T04:08:45;6.47;;;5.87;;
13218;SDS011;6674;49.152;11.918;2022-12-26T04:11:34;6.80;;;5.50;;
13218;SDS011;6674;49.152;11.918;2022-12-26T04:14:25;5.60;;;5.10;;
13218;SDS011;6674;49.152;11.918;2022-12-26T04:17:21;4.70;;;4.30;;
13218;SDS011;6674;49.152;11.918;2022-12-26T04:20:13;4.43;;;4.03;;
13218;SDS011;6674;49.152;11.918;2022-12-26T04:22:44;4.30;;;3.90;;
13218;SDS011;6674;49.152;11.918;2022-12-26T04:25:34;5.23;;;4.60;;
13218;SDS011;6674;49.152;11.918;2022-12-26T04:28:26;4.80;;;4.40;;
13218;SDS011;6674;49.152;11.918;2022-12-26T04:31:13;4.70;;;4.30;;
13218;SDS011;6674;49.152;11.918;2022-12-26T04:34:08;4.30;;;3.90;;
13218;SDS011;6674;49.152;11.918;2022-12-26T04:36:59;4.63;;;4.10;;
13218;SDS011;6674;49.152;11.918;2022-12-26T04:39:47;4.67;;;4.27;;
13218;SDS011;6674;49.152;11.918;2022-12-26T04:42:34;5.63;;;4.70;;
13218;SDS011;6674;49.152;11.918;2022-12-26T04:45:21;5.67;;;5.13;;
13218;SDS011;6674;49.152;11.918;2022-12-26T04:47:48;5.10;;;4.60;;
13218;SDS011;6674;49.152;11.918;2022-12-26T04:50:32;5.13;;;4.73;;
13218;SDS011;6674;49.152;11.918;2022-12-26T04:52:59;4.63;;;4.20;;
13218;SDS011;6674;49.152;11.918;2022-12-26T04:55:26;5.20;;;4.10;;
13218;SDS011;6674;49.152;11.918;2022-12-26T04:57:54;4.43;;;3.83;;
13218;SDS011;6674;49.152;11.918;2022-12-26T05:00:23;4.40;;;4.00;;
13218;SDS011;6674;49.152;11.918;2022-12-26T05:02:52;3.97;;;3.67;;
13218;SDS011;6674;49.152;11.918;2022-12-26T05:05:37;3.67;;;3.37;;
13218;SDS011;6674;49.152;11.918;2022-12-26T05:08:23;4.60;;;4.20;;
13218;SDS011;6674;49.152;11.918;2022-12-26T05:11:09;4.37;;;3.97;;
13218;SDS011;6674;49.152;11.918;2022-12-26T05:13:36;3.93;;;3.53;;
13218;SDS011;6674;49.152;11.918;2022-12-26T05:16:04;3.83;;;3.53;;
13218;SDS011;6674;49.152;11.918;2022-12-26T05:18:49;6.10;;;4.20;;
13218;SDS011;6674;49.152;11.918;2022-12-26T05:21:33;4.10;;;3.80;;
13218;SDS011;6674;49.152;11.918;2022-12-26T05:24:18;4.83;;;4.03;;
13218;SDS011;6674;49.152;11.918;2022-12-26T05:27:17;4.27;;;3.87;;
13218;SDS011;6674;49.152;11.918;2022-12-26T05:30:02;4.10;;;3.63;;
13218;SDS011;6674;49.152;11.918;2022-12-26T05:32:30;4.27;;;3.87;;
13218;SDS011;6674;49.152;11.918;2022-12-26T05:35:14;4.87;;;3.73;;
13218;SDS011;6674;49.152;11.918;2022-12-26T05:37:41;4.00;;;3.60;;
13218;SDS011;6674;49.152;11.918;2022-12-26T05:40:08;6.03;;;3.70;;
13218;SDS011;6674;49.152;11.918;2022-12-26T05:42:35;4.30;;;3.90;;
13218;SDS011;6674;49.152;11.918;2022-12-26T05:45:02;3.80;;;3.50;;
13218;SDS011;6674;49.152;11.918;2022-12-26T05:47:30;4.07;;;3.67;;
13218;SDS011;6674;49.152;11.918;2022-12-26T05:49:57;5.07;;;3.70;;
13218;SDS011;6674;49.152;11.918;2022-12-26T05:52:24;4.30;;;3.43;;
13218;SDS011;6674;49.152;11.918;2022-12-26T05:54:50;5.30;;;3.47;;
13218;SDS011;6674;49.152;11.918;2022-12-26T05:57:17;5.23;;;3.60;;
13218;SDS011;6674;49.152;11.918;2022-12-26T05:59:43;4.53;;;3.13;;
13218;SDS011;6674;49.152;11.918;2022-12-26T06:02:10;4.67;;;3.83;;
13218;SDS011;6674;49.152;11.918;2022-12-26T06:04:38;4.13;;;3.63;;
13218;SDS011;6674;49.152;11.918;2022-12-26T06:07:04;3.57;;;3.27;;
13218;SDS011;6674;49.152;11.918;2022-12-26T06:09:31;3.67;;;3.37;;
13218;SDS011;6674;49.152;11.918;2022-12-26T06:11:58;3.70;;;3.30;;
13218;SDS011;6674;49.152;11.918;2022-12-26T06:14:24;3.97;;;3.60;;
13218;SDS011;6674;49.152;11.918;2022-12-26T06:16:51;4.27;;;3.27;;
13218;SDS011;6674;49.152;11.918;2022-12-26T06:19:18;3.80;;;3.40;;
13218;SDS011;6674;49.152;11.918;2022-12-26T06:21:46;3.90;;;3.60;;
13218;SDS011;6674;49.152;11.918;2022-12-26T06:24:12;4.00;;;3.37;;
13218;SDS011;6674;49.152;11.918;2022-12-26T06:26:39;4.33;;;3.50;;
13218;SDS011;6674;49.152;11.918;2022-12-26T06:29:05;3.93;;;3.20;;
13218;SDS011;6674;49.152;11.918;2022-12-26T06:31:32;3.57;;;3.20;;
13218;SDS011;6674;49.152;11.918;2022-12-26T06:33:59;3.33;;;3.03;;
13218;SDS011;6674;49.152;11.918;2022-12-26T06:36:26;4.03;;;3.63;;
13218;SDS011;6674;49.152;11.918;2022-12-26T06:38:55;4.03;;;3.43;;
13218;SDS011;6674;49.152;11.918;2022-12-26T06:41:22;3.57;;;3.23;;
13218;SDS011;6674;49.152;11.918;2022-12-26T06:43:50;3.70;;;3.40;;
13218;SDS011;6674;49.152;11.918;2022-12-26T06:46:17;3.50;;;3.20;;
13218;SDS011;6674;49.152;11.918;2022-12-26T06:48:45;3.73;;;3.37;;
13218;SDS011;6674;49.152;11.918;2022-12-26T06:51:13;4.63;;;3.67;;
13218;SDS011;6674;49.152;11.918;2022-12-26T06:53:41;4.33;;;4.00;;
13218;SDS011;6674;49.152;11.918;2022-12-26T06:56:10;3.47;;;3.17;;
13218;SDS011;6674;49.152;11.918;2022-12-26T06:58:39;4.07;;;3.67;;
13218;SDS011;6674;49.152;11.918;2022-12-26T07:01:06;3.87;;;3.47;;
13218;SDS011;6674;49.152;11.918;2022-12-26T07:03:34;3.90;;;3.60;;
13218;SDS011;6674;49.152;11.918;2022-12-26T07:06:02;3.93;;;3.53;;
13218;SDS011;6674;49.152;11.918;2022-12-26T07:08:30;4.50;;;4.03;;
13218;SDS011;6674;49.152;11.918;2022-12-26T07:10:57;4.17;;;3.57;;
13218;SDS011;6674;49.152;11.918;2022-12-26T07:13:25;3.60;;;3.30;;
13218;SDS011;6674;49.152;11.918;2022-12-26T07:15:51;4.83;;;3.90;;
13218;SDS011;6674;49.152;11.918;2022-12-26T07:18:18;3.37;;;3.17;;
13218;SDS011;6674;49.152;11.918;2022-12-26T07:20:44;3.70;;;3.40;;
13218;SDS011;6674;49.152;11.918;2022-12-26T07:23:11;3.33;;;2.97;;
13218;SDS011;6674;49.152;11.918;2022-12-26T07:25:38;3.60;;;3.30;;
13218;SDS011;6674;49.152;11.918;2022-12-26T07:28:04;4.30;;;3.43;;
13218;SDS011;6674;49.152;11.918;2022-12-26T07:30:32;3.63;;;3.30;;
13218;SDS011;6674;49.152;11.918;2022-12-26T07:32:59;4.60;;;3.50;;
13218;SDS011;6674;49.152;11.918;2022-12-26T07:35:25;3.53;;;3.10;;
13218;SDS011;6674;49.152;11.918;2022-12-26T07:37:52;3.13;;;2.83;;
13218;SDS011;6674;49.152;11.918;2022-12-26T07:40:18;4.20;;;3.20;;
13218;SDS011;6674;49.152;11.918;2022-12-26T07:42:45;3.50;;;3.20;;
13218;SDS011;6674;49.152;11.918;2022-12-26T07:45:12;3.73;;;2.80;;
13218;SDS011;6674;49.152;11.918;2022-12-26T07:47:39;3.00;;;2.80;;
13218;SDS011;6674;49.152;11.918;2022-12-26T07:50:06;3.30;;;3.03;;
13218;SDS011;6674;49.152;11.918;2022-12-26T07:52:34;4.20;;;3.80;;
13218;SDS011;6674;49.152;11.918;2022-12-26T07:55:00;4.60;;;3.20;;
13218;SDS011;6674;49.152;11.918;2022-12-26T07:57:28;3.50;;;3.20;;
13218;SDS011;6674;49.152;11.918;2022-12-26T07:59:55;3.43;;;3.10;;
13218;SDS011;6674;49.152;11.918;2022-12-26T08:02:21;3.70;;;3.40;;
13218;SDS011;6674;49.152;11.918;2022-12-26T08:04:49;3.70;;;3.40;;
13218;SDS011;6674;49.152;11.918;2022-12-26T08:07:16;3.53;;;3.10;;
13218;SDS011;6674;49.152;11.918;2022-12-26T08:09:42;3.07;;;2.70;;
13218;SDS011;6674;49.152;11.918;2022-12-26T08:12:09;3.07;;;2.77;;
13218;SDS011;6674;49.152;11.918;2022-12-26T08:14:37;4.23;;;3.10;;
13218;SDS011;6674;49.152;11.918;2022-12-26T08:17:03;3.87;;;3.57;;
13218;SDS011;6674;49.152;11.918;2022-12-26T08:19:30;3.40;;;3.10;;
13218;SDS011;6674;49.152;11.918;2022-12-26T08:21:58;5.03;;;3.50;;
13218;SDS011;6674;49.152;11.918;2022-12-26T08:24:25;3.73;;;3.40;;
13218;SDS011;6674;49.152;11.918;2022-12-26T08:26:51;3.53;;;3.23;;
13218;SDS011;6674;49.152;11.918;2022-12-26T08:29:18;3.90;;;3.60;;
13218;SDS011;6674;49.152;11.918;2022-12-26T08:31:44;3.57;;;3.27;;
13218;SDS011;6674;49.152;11.918;2022-12-26T08:34:11;4.10;;;3.70;;
13218;SDS011;6674;49.152;11.918;2022-12-26T08:36:38;3.97;;;3.57;;
13218;SDS011;6674;49.152;11.918;2022-12-26T08:39:06;4.47;;;3.80;;
13218;SDS011;6674;49.152;11.918;2022-12-26T08:41:32;4.03;;;3.73;;
13218;SDS011;6674;49.152;11.918;2022-12-26T08:43:59;4.07;;;3.53;;
13218;SDS011;6674;49.152;11.918;2022-12-26T08:46:26;3.93;;;3.53;;
13218;SDS011;6674;49.152;11.918;2022-12-26T08:48:52;3.67;;;3.37;;
13218;SDS011;6674;49.152;11.918;2022-12-26T08:51:20;3.93;;;3.60;;
13218;SDS011;6674;49.152;11.918;2022-12-26T08:53:49;4.60;;;3.40;;
13218;SDS011;6674;49.152;11.918;2022-12-26T08:56:19;4.67;;;3.43;;
13218;SDS011;6674;49.152;11.918;2022-12-26T08:58:47;3.97;;;3.40;;
13218;SDS011;6674;49.152;11.918;2022-12-26T09:01:14;4.00;;;3.70;;
13218;SDS011;6674;49.152;11.918;2022-12-26T09:03:42;4.33;;;3.53;;
13218;SDS011;6674;49.152;11.918;2022-12-26T09:06:10;3.80;;;3.30;;
13218;SDS011;6674;49.152;11.918;2022-12-26T09:08:39;3.60;;;3.30;;
13218;SDS011;6674;49.152;11.918;2022-12-26T09:11:07;3.87;;;3.53;;
13218;SDS011;6674;49.152;11.918;2022-12-26T09:13:39;3.60;;;3.30;;
13218;SDS011;6674;49.152;11.918;2022-12-26T09:16:06;4.57;;;3.30;;
13218;SDS011;6674;49.152;11.918;2022-12-26T09:18:34;3.63;;;3.00;;
13218;SDS011;6674;49.152;11.918;2022-12-26T09:21:01;4.67;;;3.67;;
13218;SDS011;6674;49.152;11.918;2022-12-26T09:23:29;3.70;;;3.40;;
13218;SDS011;6674;49.152;11.918;2022-12-26T09:26:02;4.13;;;3.30;;
13218;SDS011;6674;49.152;11.918;2022-12-26T09:28:29;5.23;;;4.10;;
13218;SDS011;6674;49.152;11.918;2022-12-26T09:30:59;4.50;;;3.47;;
13218;SDS011;6674;49.152;11.918;2022-12-26T09:33:26;4.63;;;3.87;;
13218;SDS011;6674;49.152;11.918;2022-12-26T09:35:53;4.30;;;3.90;;
13218;SDS011;6674;49.152;11.918;2022-12-26T09:38:21;4.30;;;3.90;;
13218;SDS011;6674;49.152;11.918;2022-12-26T09:40:51;4.73;;;4.30;;
13218;SDS011;6674;49.152;11.918;2022-12-26T09:43:29;4.43;;;4.03;;
13218;SDS011;6674;49.152;11.918;2022-12-26T09:46:11;4.70;;;4.30;;
13218;SDS011;6674;49.152;11.918;2022-12-26T09:48:45;4.50;;;4.10;;
13218;SDS011;6674;49.152;11.918;2022-12-26T09:51:19;4.63;;;4.20;;
13218;SDS011;6674;49.152;11.918;2022-12-26T09:53:46;7.13;;;4.77;;
13218;SDS011;6674;49.152;11.918;2022-12-26T09:56:13;6.00;;;4.80;;
13218;SDS011;6674;49.152;11.918;2022-12-26T09:58:43;5.87;;;4.70;;
13218;SDS011;6674;49.152;11.918;2022-12-26T10:01:15;6.07;;;5.47;;
13218;SDS011;6674;49.152;11.918;2022-12-26T10:03:45;7.30;;;5.77;;
13218;SDS011;6674;49.152;11.918;2022-12-26T10:06:14;8.40;;;5.83;;
13218;SDS011;6674;49.152;11.918;2022-12-26T10:08:52;6.30;;;5.70;;
13218;SDS011;6674;49.152;11.918;2022-12-26T10:11:33;7.50;;;5.90;;
13218;SDS011;6674;49.152;11.918;2022-12-26T10:14:10;6.73;;;5.90;;
13218;SDS011;6674;49.152;11.918;2022-12-26T10:16:48;6.70;;;6.10;;
13218;SDS011;6674;49.152;11.918;2022-12-26T10:19:24;7.63;;;5.73;;
13218;SDS011;6674;49.152;11.918;2022-12-26T10:21:59;6.30;;;5.70;;
13218;SDS011;6674;49.152;11.918;2022-12-26T10:24:36;9.20;;;6.70;;
13218;SDS011;6674;49.152;11.918;2022-12-26T10:27:08;7.83;;;6.53;;
13218;SDS011;6674;49.152;11.918;2022-12-26T10:29:39;6.77;;;6.10;;
13218;SDS011;6674;49.152;11.918;2022-12-26T10:32:11;7.00;;;6.23;;
13218;SDS011;6674;49.152;11.918;2022-12-26T10:34:40;7.07;;;5.90;;
13218;SDS011;6674;49.152;11.918;2022-12-26T10:37:11;7.07;;;6.37;;
13218;SDS011;6674;49.152;11.918;2022-12-26T10:39:43;7.57;;;6.70;;
13218;SDS011;6674;49.152;11.918;2022-12-26T10:42:15;8.70;;;7.03;;
13218;SDS011;6674;49.152;11.918;2022-12-26T10:44:47;8.07;;;7.07;;
13218;SDS011;6674;49.152;11.918;2022-12-26T10:47:18;9.27;;;6.73;;
13218;SDS011;6674;49.152;11.918;2022-12-26T10:49:49;8.43;;;6.73;;
13218;SDS011;6674;49.152;11.918;2022-12-26T10:52:16;10.93;;;7.80;;
13218;SDS011;6674;49.152;11.918;2022-12-26T10:54:48;8.53;;;7.63;;
13218;SDS011;6674;49.152;11.918;2022-12-26T10:57:19;7.83;;;7.10;;
13218;SDS011;6674;49.152;11.918;2022-12-26T10:59:47;8.27;;;7.47;;
13218;SDS011;6674;49.152;11.918;2022-12-26T11:02:25;8.53;;;7.73;;
13218;SDS011;6674;49.152;11.918;2022-12-26T11:05:00;10.27;;;8.00;;
13218;SDS011;6674;49.152;11.918;2022-12-26T11:07:32;9.33;;;8.17;;
13218;SDS011;6674;49.152;11.918;2022-12-26T11:10:00;9.27;;;8.23;;
13218;SDS011;6674;49.152;11.918;2022-12-26T11:12:31;10.23;;;7.87;;
13218;SDS011;6674;49.152;11.918;2022-12-26T11:15:03;8.73;;;7.80;;
13218;SDS011;6674;49.152;11.918;2022-12-26T11:17:34;10.90;;;8.40;;
13218;SDS011;6674;49.152;11.918;2022-12-26T11:20:10;9.47;;;7.87;;
13218;SDS011;6674;49.152;11.918;2022-12-26T11:22:49;10.20;;;9.10;;
13218;SDS011;6674;49.152;11.918;2022-12-26T11:25:18;8.33;;;7.43;;
13218;SDS011;6674;49.152;11.918;2022-12-26T11:27:47;9.83;;;8.00;;
13218;SDS011;6674;49.152;11.918;2022-12-26T11:30:17;7.87;;;7.07;;
13218;SDS011;6674;49.152;11.918;2022-12-26T11:32:48;10.30;;;8.90;;
13218;SDS011;6674;49.152;11.918;2022-12-26T11:35:17;9.67;;;7.77;;
13218;SDS011;6674;49.152;11.918;2022-12-26T11:37:45;9.27;;;8.37;;
13218;SDS011;6674;49.152;11.918;2022-12-26T11:40:15;10.57;;;8.30;;
13218;SDS011;6674;49.152;11.918;2022-12-26T11:42:47;9.13;;;8.13;;
13218;SDS011;6674;49.152;11.918;2022-12-26T11:45:19;9.23;;;8.33;;
13218;SDS011;6674;49.152;11.918;2022-12-26T11:47:50;10.43;;;8.47;;
13218;SDS011;6674;49.152;11.918;2022-12-26T11:50:18;8.17;;;6.87;;
13218;SDS011;6674;49.152;11.918;2022-12-26T11:52:49;8.43;;;7.57;;
13218;SDS011;6674;49.152;11.918;2022-12-26T11:55:29;6.43;;;5.83;;
13218;SDS011;6674;49.152;11.918;2022-12-26T11:57:58;7.40;;;6.70;;
13218;SDS011;6674;49.152;11.918;2022-12-26T12:00:30;8.60;;;7.80;;
13218;SDS011;6674;49.152;11.918;2022-12-26T12:03:00;7.57;;;6.33;;
13218;SDS011;6674;49.152;11.918;2022-12-26T12:05:31;5.50;;;5.00;;
13218;SDS011;6674;49.152;11.918;2022-12-26T12:08:17;4.93;;;4.33;;
13218;SDS011;6674;49.152;11.918;2022-12-26T12:11:08;7.70;;;6.90;;
13218;SDS011;6674;49.152;11.918;2022-12-26T12:13:47;6.40;;;5.63;;
13218;SDS011;6674;49.152;11.918;2022-12-26T12:16:28;6.63;;;5.90;;
13218;SDS011;6674;49.152;11.918;2022-12-26T12:19:18;7.67;;;6.70;;
13218;SDS011;6674;49.152;11.918;2022-12-26T12:21:58;5.90;;;5.00;;
13218;SDS011;6674;49.152;11.918;2022-12-26T12:24:38;6.50;;;5.80;;
13218;SDS011;6674;49.152;11.918;2022-12-26T12:27:19;6.67;;;5.67;;
13218;SDS011;6674;49.152;11.918;2022-12-26T12:29:54;6.40;;;5.80;;
13218;SDS011;6674;49.152;11.918;2022-12-26T12:32:34;6.30;;;5.70;;
13218;SDS011;6674;49.152;11.918;2022-12-26T12:35:16;5.50;;;5.00;;
13218;SDS011;6674;49.152;11.918;2022-12-26T12:37:56;5.90;;;5.30;;
13218;SDS011;6674;49.152;11.918;2022-12-26T12:40:36;5.97;;;5.43;;
13218;SDS011;6674;49.152;11.918;2022-12-26T12:43:12;6.10;;;5.47;;
13218;SDS011;6674;49.152;11.918;2022-12-26T12:45:44;6.20;;;5.20;;
13218;SDS011;6674;49.152;11.918;2022-12-26T12:48:24;5.57;;;5.07;;
13218;SDS011;6674;49.152;11.918;2022-12-26T12:51:01;5.70;;;5.20;;
13218;SDS011;6674;49.152;11.918;2022-12-26T12:53:51;4.67;;;4.23;;
13218;SDS011;6674;49.152;11.918;2022-12-26T12:56:32;4.60;;;4.20;;
13218;SDS011;6674;49.152;11.918;2022-12-26T12:59:07;5.00;;;4.03;;
13218;SDS011;6674;49.152;11.918;2022-12-26T13:01:44;4.30;;;3.90;;
13218;SDS011;6674;49.152;11.918;2022-12-26T13:04:15;3.87;;;3.43;;
13218;SDS011;6674;49.152;11.918;2022-12-26T13:06:48;4.07;;;3.67;;
13218;SDS011;6674;49.152;11.918;2022-12-26T13:09:18;4.53;;;4.00;;
13218;SDS011;6674;49.152;11.918;2022-12-26T13:11:47;5.07;;;4.00;;
13218;SDS011;6674;49.152;11.918;2022-12-26T13:14:19;4.10;;;3.70;;
13218;SDS011;6674;49.152;11.918;2022-12-26T13:16:49;5.00;;;4.50;;
13218;SDS011;6674;49.152;11.918;2022-12-26T13:19:21;5.27;;;4.80;;
13218;SDS011;6674;49.152;11.918;2022-12-26T13:21:53;4.50;;;3.93;;
13218;SDS011;6674;49.152;11.918;2022-12-26T13:24:24;3.80;;;3.50;;
13218;SDS011;6674;49.152;11.918;2022-12-26T13:26:57;3.53;;;3.23;;
13218;SDS011;6674;49.152;11.918;2022-12-26T13:29:31;3.73;;;3.40;;
13218;SDS011;6674;49.152;11.918;2022-12-26T13:32:00;4.57;;;3.20;;
13218;SDS011;6674;49.152;11.918;2022-12-26T13:34:29;4.70;;;3.33;;
13218;SDS011;6674;49.152;11.918;2022-12-26T13:36:58;5.13;;;3.53;;
13218;SDS011;6674;49.152;11.918;2022-12-26T13:39:35;5.07;;;3.60;;
13218;SDS011;6674;49.152;11.918;2022-12-26T13:42:15;3.80;;;3.43;;
13218;SDS011;6674;49.152;11.918;2022-12-26T13:51:45;4.37;;;3.70;;
13218;SDS011;6674;49.152;11.918;2022-12-26T13:54:18;4.47;;;3.37;;
13218;SDS011;6674;49.152;11.918;2022-12-26T13:59:37;4.30;;;3.90;;
13218;SDS011;6674;49.152;11.918;2022-12-26T14:02:12;3.40;;;3.10;;
13218;SDS011;6674;49.152;11.918;2022-12-26T14:05:05;3.53;;;3.10;;
13218;SDS011;6674;49.152;11.918;2022-12-26T14:07:39;3.30;;;3.00;;
13218;SDS011;6674;49.152;11.918;2022-12-26T14:10:14;3.83;;;3.50;;
13218;SDS011;6674;49.152;11.918;2022-12-26T14:12:49;3.27;;;3.03;;
13218;SDS011;6674;49.152;11.918;2022-12-26T14:15:27;3.57;;;3.27;;
13218;SDS011;6674;49.152;11.918;2022-12-26T14:18:04;3.60;;;3.30;;
13218;SDS011;6674;49.152;11.918;2022-12-26T14:20:40;3.50;;;3.20;;
13218;SDS011;6674;49.152;11.918;2022-12-26T14:23:16;3.47;;;3.17;;
13218;SDS011;6674;49.152;11.918;2022-12-26T14:25:54;3.10;;;2.90;;
13218;SDS011;6674;49.152;11.918;2022-12-26T14:28:28;4.07;;;3.13;;
13218;SDS011;6674;49.152;11.918;2022-12-26T14:31:10;3.50;;;3.20;;
13218;SDS011;6674;49.152;11.918;2022-12-26T14:33:45;4.00;;;3.47;;
13218;SDS011;6674;49.152;11.918;2022-12-26T14:36:18;4.23;;;3.20;;
13218;SDS011;6674;49.152;11.918;2022-12-26T14:38:54;3.50;;;3.20;;
13218;SDS011;6674;49.152;11.918;2022-12-26T14:41:27;3.20;;;3.00;;
13218;SDS011;6674;49.152;11.918;2022-12-26T14:44:41;3.67;;;3.37;;
13218;SDS011;6674;49.152;11.918;2022-12-26T14:47:08;3.10;;;2.80;;
13218;SDS011;6674;49.152;11.918;2022-12-26T14:49:36;3.00;;;2.77;;
13218;SDS011;6674;49.152;11.918;2022-12-26T14:52:29;3.03;;;2.73;;
13218;SDS011;6674;49.152;11.918;2022-12-26T14:55:02;2.87;;;2.57;;
13218;SDS011;6674;49.152;11.918;2022-12-26T14:58:27;3.90;;;3.10;;
13218;SDS011;6674;49.152;11.918;2022-12-26T15:04:01;2.73;;;2.47;;
13218;SDS011;6674;49.152;11.918;2022-12-26T15:06:42;2.50;;;2.30;;
13218;SDS011;6674;49.152;11.918;2022-12-26T15:12:37;2.83;;;2.40;;
13218;SDS011;6674;49.152;11.918;2022-12-26T15:15:32;2.60;;;2.40;;
13218;SDS011;6674;49.152;11.918;2022-12-26T15:21:36;2.70;;;2.50;;
13218;SDS011;6674;49.152;11.918;2022-12-26T15:24:35;2.53;;;2.33;;
13218;SDS011;6674;49.152;11.918;2022-12-26T15:27:32;3.10;;;2.80;;
13218;SDS011;6674;49.152;11.918;2022-12-26T15:30:14;2.97;;;2.63;;
13218;SDS011;6674;49.152;11.918;2022-12-26T15:32:48;2.50;;;2.30;;
13218;SDS011;6674;49.152;11.918;2022-12-26T15:35:24;2.73;;;2.53;;
13218;SDS011;6674;49.152;11.918;2022-12-26T15:38:10;2.83;;;2.50;;
13218;SDS011;6674;49.152;11.918;2022-12-26T15:40:46;2.60;;;2.40;;
13218;SDS011;6674;49.152;11.918;2022-12-26T15:43:32;3.20;;;2.90;;
13218;SDS011;6674;49.152;11.918;2022-12-26T15:46:07;2.93;;;2.60;;
13218;SDS011;6674;49.152;11.918;2022-12-26T15:48:43;3.73;;;3.20;;
13218;SDS011;6674;49.152;11.918;2022-12-26T15:51:22;3.30;;;3.00;;
13218;SDS011;6674;49.152;11.918;2022-12-26T15:54:05;3.40;;;2.90;;